Time;durP1;ratioP1;P1;durP2;ratioP2;P2;SDS_P1;SDS_P2;PMS_P1;PMS_P2;Temp;Humidity;BMP_temperature;BMP_pressure;BME280_temperature;BME280_humidity;BME280_pressure;Samples;Min_cycle;Max_cycle;Signal;HPM_P1;HPM_P2
2023/01/30 01:01:43;;;;;;;;;;;9.80;99.00;;;;;;4588281;19;20256;-35
2023/01/30 01:03:14;;;;;;;;;;;9.80;99.10;;;;;;4589442;19;19918;-34
2023/01/30 01:04:45;;;;;;;;;;;9.70;99.10;;;;;;4590182;19;19930;-38
2023/01/30 01:06:16;;;;;;;;;;;9.80;99.00;;;;;;4590590;19;19926;-34
2023/01/30 01:07:47;;;;;;;;;;;9.70;99.20;;;;;;4590122;19;19911;-37
2023/01/30 01:09:18;;;;;;;;;;;9.70;99.10;;;;;;4590332;19;20336;-36
2023/01/30 01:10:49;;;;;;;;;;;9.70;99.20;;;;;;4590231;19;20147;-34
2023/01/30 01:12:20;;;;;;;;;;;9.70;99.10;;;;;;4590120;19;19915;-34
2023/01/30 01:13:54;;;;;;;;;;;9.60;99.10;;;;;;4589633;19;20268;-35
2023/01/30 01:15:25;;;;;;;;;;;9.60;99.20;;;;;;4590266;19;19974;-33
2023/01/30 01:16:56;;;;;;;;;;;9.70;99.20;;;;;;4589176;19;19930;-37
2023/01/30 01:18:27;;;;;;;;;;;9.70;99.20;;;;;;4590072;19;19916;-36
2023/01/30 01:19:58;;;;;;;;;;;9.70;99.20;;;;;;4589034;19;19919;-35
2023/01/30 01:21:29;;;;;;;;;;;9.50;99.30;;;;;;4590259;19;20328;-37
2023/01/30 01:23:00;;;;;;;;;;;9.40;99.60;;;;;;4588851;19;19970;-37
2023/01/30 01:24:31;;;;;;;;;;;9.20;99.70;;;;;;4589629;19;19914;-36
2023/01/30 01:26:02;;;;;;;;;;;9.20;99.80;;;;;;4590012;19;19942;-33
2023/01/30 01:27:33;;;;;;;;;;;9.30;99.70;;;;;;4590224;19;19923;-36
2023/01/30 01:29:04;;;;;;;;;;;9.40;99.60;;;;;;4590274;19;19926;-37
2023/01/30 01:30:36;;;;;;;;;;;9.20;99.60;;;;;;4589880;19;20002;-37
2023/01/30 01:32:07;;;;;;;;;;;9.10;99.70;;;;;;4590071;19;19971;-36
2023/01/30 01:33:38;;;;;;;;;;;9.10;99.80;;;;;;4589874;19;20339;-35
2023/01/30 01:35:09;;;;;;;;;;;9.20;99.70;;;;;;4589075;19;19914;-37
2023/01/30 01:36:40;;;;;;;;;;;9.30;99.80;;;;;;4587554;19;19911;-35
2023/01/30 01:38:11;;;;;;;;;;;9.50;99.60;;;;;;4589046;19;19978;-35
2023/01/30 01:41:31;;;;;;;;;;;9.40;99.40;;;;;;4590144;19;19929;-35
2023/01/30 01:43:13;;;;;;;;;;;9.20;99.50;;;;;;4589944;19;19923;-36
2023/01/30 01:44:57;;;;;;;;;;;9.30;99.60;;;;;;4589781;19;19925;-35
2023/01/30 01:46:29;;;;;;;;;;;9.60;99.30;;;;;;4589845;19;19929;-34
2023/01/30 01:48:05;;;;;;;;;;;9.90;99.00;;;;;;4588351;19;19986;-36
2023/01/30 01:49:36;;;;;;;;;;;10.10;99.20;;;;;;4589219;19;19919;-35
2023/01/30 01:51:33;;;;;;;;;;;10.20;98.50;;;;;;4588533;19;19931;-36
2023/01/30 01:53:03;;;;;;;;;;;10.20;98.50;;;;;;4587165;19;19950;-33
2023/01/30 01:54:36;;;;;;;;;;;10.10;98.40;;;;;;4587268;19;19931;-34
2023/01/30 01:56:07;;;;;;;;;;;10.30;98.30;;;;;;4587660;19;19930;-36
2023/01/30 01:57:48;;;;;;;;;;;10.30;98.30;;;;;;4586997;19;19914;-37
2023/01/30 01:59:27;;;;;;;;;;;10.40;98.10;;;;;;4586504;19;19919;-36
2023/01/30 02:00:58;;;;;;;;;;;10.40;98.20;;;;;;4587212;19;19919;-37
2023/01/30 02:11:28;;;;;;;;;;;10.40;97.80;;;;;;4591649;19;19923;-37
2023/01/30 02:13:00;;;;;;;;;;;10.40;97.80;;;;;;4591626;19;19919;-37
2023/01/30 02:14:31;;;;;;;;;;;10.50;97.70;;;;;;4589713;19;19925;-34
2023/01/30 02:16:02;;;;;;;;;;;10.50;97.70;;;;;;4591604;19;19914;-34
2023/01/30 02:17:33;;;;;;;;;;;10.50;97.70;;;;;;4591685;19;19911;-36
2023/01/30 02:19:06;;;;;;;;;;;10.60;97.70;;;;;;4591091;19;20376;-35
2023/01/30 02:20:55;;;;;;;;;;;10.60;97.40;;;;;;4591480;19;19915;-36
2023/01/30 02:22:26;;;;;;;;;;;10.60;97.40;;;;;;4591429;19;19919;-34
2023/01/30 02:23:57;;;;;;;;;;;10.60;99.10;;;;;;4591299;19;20335;-35
2023/01/30 02:25:54;;;;;;;;;;;10.70;97.40;;;;;;4591720;19;19937;-34
2023/01/30 02:27:43;;;;;;;;;;;10.60;97.30;;;;;;4591533;19;19925;-35
2023/01/30 02:29:16;;;;;;;;;;;10.50;97.40;;;;;;4591442;19;19935;-37
2023/01/30 02:31:13;;;;;;;;;;;10.50;97.40;;;;;;4591192;19;20461;-34
2023/01/30 02:32:44;;;;;;;;;;;10.50;97.30;;;;;;4591016;19;19935;-36
2023/01/30 02:34:21;;;;;;;;;;;10.50;97.40;;;;;;4591062;19;19914;-33
2023/01/30 02:36:01;;;;;;;;;;;10.50;97.30;;;;;;4591369;19;19918;-37
2023/01/30 02:37:41;;;;;;;;;;;10.60;97.20;;;;;;4591029;19;19922;-38
2023/01/30 02:39:21;;;;;;;;;;;10.60;97.20;;;;;;4590285;19;19910;-37
2023/01/30 02:41:20;;;;;;;;;;;10.50;97.10;;;;;;4590932;19;19911;-35
2023/01/30 02:42:52;;;;;;;;;;;10.60;97.20;;;;;;4590722;19;19931;-36
2023/01/30 02:44:22;;;;;;;;;;;10.60;97.20;;;;;;4591082;19;19915;-37
2023/01/30 02:46:01;;;;;;;;;;;10.50;97.10;;;;;;4591915;19;19935;-36
2023/01/30 02:47:40;;;;;;;;;;;10.60;97.10;;;;;;4592387;19;20259;-36
2023/01/30 02:49:28;;;;;;;;;;;10.70;97.00;;;;;;4592150;19;20268;-38
2023/01/30 02:51:00;;;;;;;;;;;10.80;96.90;;;;;;4593095;19;19917;-36
2023/01/30 02:52:31;;;;;;;;;;;10.80;96.70;;;;;;4591542;19;20045;-38
2023/01/30 02:54:04;;;;;;;;;;;10.70;96.60;;;;;;4590547;19;19922;-38
2023/01/30 02:55:35;;;;;;;;;;;10.60;96.70;;;;;;4591005;19;19936;-35
2023/01/30 02:57:19;;;;;;;;;;;10.70;98.50;;;;;;4592128;19;19919;-35
2023/01/30 02:58:52;;;;;;;;;;;10.80;96.50;;;;;;4592291;19;20254;-37
2023/01/30 03:00:30;;;;;;;;;;;10.70;97.60;;;;;;4593473;19;19941;-35
2023/01/30 03:02:04;;;;;;;;;;;10.70;96.40;;;;;;4592397;19;19922;-37
2023/01/30 03:03:45;;;;;;;;;;;10.60;96.50;;;;;;4590261;19;19919;-34
2023/01/30 03:05:19;;;;;;;;;;;10.50;96.70;;;;;;4592844;19;19914;-34
2023/01/30 03:06:53;;;;;;;;;;;10.60;96.60;;;;;;4593348;19;19919;-38
2023/01/30 03:08:33;;;;;;;;;;;10.50;96.70;;;;;;4590433;19;20282;-37
2023/01/30 03:10:12;;;;;;;;;;;10.60;96.60;;;;;;4592401;19;19940;-37
2023/01/30 03:13:49;;;;;;;;;;;10.50;96.80;;;;;;4590579;19;19918;-36
2023/01/30 03:15:26;;;;;;;;;;;10.50;96.70;;;;;;4591816;19;20003;-34
2023/01/30 03:16:57;;;;;;;;;;;10.40;97.20;;;;;;4590275;19;19926;-34
2023/01/30 03:18:28;;;;;;;;;;;10.30;97.10;;;;;;4592013;19;19998;-34
2023/01/30 03:19:59;;;;;;;;;;;10.40;97.00;;;;;;4591749;19;19945;-37
2023/01/30 03:21:30;;;;;;;;;;;10.40;96.90;;;;;;4591370;19;19945;-34
2023/01/30 03:23:01;;;;;;;;;;;10.40;97.00;;;;;;4593226;19;19952;-36
2023/01/30 03:24:32;;;;;;;;;;;10.40;97.10;;;;;;4593134;19;19918;-34
2023/01/30 03:26:03;;;;;;;;;;;10.40;96.80;;;;;;4591247;19;19941;-38
2023/01/30 03:27:34;;;;;;;;;;;10.40;96.90;;;;;;4592793;19;19927;-37
2023/01/30 03:29:05;;;;;;;;;;;10.50;97.00;;;;;;4594149;19;19922;-37
2023/01/30 03:30:36;;;;;;;;;;;10.50;96.90;;;;;;4591781;19;19919;-35
2023/01/30 03:32:07;;;;;;;;;;;10.50;96.90;;;;;;4593288;19;20381;-35
2023/01/30 03:33:38;;;;;;;;;;;10.60;96.80;;;;;;4594211;19;19930;-34
2023/01/30 03:35:09;;;;;;;;;;;10.50;96.90;;;;;;4592290;19;19922;-35
2023/01/30 03:36:40;;;;;;;;;;;10.50;97.00;;;;;;4591822;19;19922;-38
2023/01/30 03:38:12;;;;;;;;;;;10.60;96.80;;;;;;4593145;19;19918;-34
2023/01/30 03:39:43;;;;;;;;;;;10.60;96.70;;;;;;4591979;19;19911;-32
2023/01/30 03:41:14;;;;;;;;;;;10.60;96.80;;;;;;4592135;19;19911;-35
2023/01/30 03:42:45;;;;;;;;;;;10.60;96.60;;;;;;4593678;19;19918;-37
2023/01/30 03:44:16;;;;;;;;;;;10.70;96.50;;;;;;4591947;19;19922;-36
2023/01/30 03:45:47;;;;;;;;;;;10.60;96.50;;;;;;4591988;19;19925;-37
2023/01/30 03:47:17;;;;;;;;;;;10.60;96.50;;;;;;4592003;19;19940;-34
2023/01/30 03:48:49;;;;;;;;;;;10.60;96.50;;;;;;4592396;19;20333;-36
2023/01/30 03:50:20;;;;;;;;;;;10.60;96.60;;;;;;4591690;19;19918;-33
2023/01/30 03:51:50;;;;;;;;;;;10.60;96.50;;;;;;4591858;19;19923;-37
2023/01/30 03:53:22;;;;;;;;;;;10.50;96.60;;;;;;4590846;19;19915;-34
2023/01/30 03:54:52;;;;;;;;;;;10.50;96.60;;;;;;4591481;19;19914;-35
2023/01/30 03:56:23;;;;;;;;;;;10.40;96.60;;;;;;4591564;19;19919;-34
2023/01/30 03:57:55;;;;;;;;;;;10.40;96.50;;;;;;4591751;19;19914;-36
2023/01/30 03:59:26;;;;;;;;;;;10.40;96.60;;;;;;4591121;19;19918;-38
2023/01/30 04:00:57;;;;;;;;;;;10.40;96.60;;;;;;4591991;19;19935;-34
2023/01/30 04:02:28;;;;;;;;;;;10.40;96.50;;;;;;4590712;19;20332;-34
2023/01/30 04:03:59;;;;;;;;;;;10.50;96.50;;;;;;4591430;19;19910;-37
2023/01/30 04:05:30;;;;;;;;;;;10.50;96.40;;;;;;4591523;19;20412;-37
2023/01/30 04:07:01;;;;;;;;;;;10.50;96.40;;;;;;4591340;19;19946;-35
2023/01/30 04:08:32;;;;;;;;;;;10.50;96.30;;;;;;4591586;19;19914;-37
2023/01/30 04:10:03;;;;;;;;;;;10.50;96.20;;;;;;4591227;19;19919;-33
2023/01/30 04:11:34;;;;;;;;;;;10.40;96.20;;;;;;4591381;19;20003;-34
2023/01/30 05:21:59;;;;;;;;;;;10.40;97.60;;;;;;4588695;19;19922;-34
2023/01/30 05:23:30;;;;;;;;;;;10.20;97.90;;;;;;4590553;19;20433;-33
2023/01/30 05:25:01;;;;;;;;;;;10.00;98.10;;;;;;4590752;19;19930;-35
2023/01/30 05:26:32;;;;;;;;;;;9.90;98.20;;;;;;4591393;19;19938;-37
2023/01/30 05:28:03;;;;;;;;;;;9.90;98.20;;;;;;4590274;19;19955;-34
2023/01/30 05:29:34;;;;;;;;;;;9.80;98.30;;;;;;4590453;19;20348;-34
2023/01/30 05:31:05;;;;;;;;;;;9.80;98.40;;;;;;4591761;19;19933;-34
2023/01/30 05:32:36;;;;;;;;;;;9.80;98.20;;;;;;4591205;19;20331;-34
2023/01/30 05:34:09;;;;;;;;;;;9.90;98.20;;;;;;4590093;19;19919;-34
2023/01/30 05:35:45;;;;;;;;;;;9.90;98.20;;;;;;4588863;19;19995;-34
2023/01/30 05:37:16;;;;;;;;;;;9.90;98.10;;;;;;4590260;19;20343;-34
2023/01/30 05:38:47;;;;;;;;;;;9.90;98.10;;;;;;4590664;19;19929;-34
2023/01/30 05:40:18;;;;;;;;;;;9.90;98.10;;;;;;4588486;19;19914;-34
2023/01/30 05:41:49;;;;;;;;;;;9.90;98.10;;;;;;4590863;19;19914;-34
2023/01/30 05:43:20;;;;;;;;;;;9.80;98.20;;;;;;4591105;19;19929;-34
2023/01/30 05:44:51;;;;;;;;;;;9.90;98.10;;;;;;4591236;19;19927;-34
2023/01/30 05:46:23;;;;;;;;;;;9.90;98.10;;;;;;4595884;19;19922;-34
2023/01/30 05:47:53;;;;;;;;;;;9.80;98.10;;;;;;4596597;19;20244;-34
2023/01/30 05:49:24;;;;;;;;;;;9.80;98.20;;;;;;4597257;19;19931;-34
2023/01/30 05:50:56;;;;;;;;;;;9.90;98.20;;;;;;4595275;19;19921;-34
2023/01/30 05:52:27;;;;;;;;;;;9.80;98.20;;;;;;4593554;19;19919;-34
2023/01/30 05:53:58;;;;;;;;;;;9.80;98.20;;;;;;4596528;19;19923;-34
2023/01/30 05:55:29;;;;;;;;;;;9.80;98.20;;;;;;4596652;19;19923;-34
2023/01/30 05:57:00;;;;;;;;;;;9.80;98.30;;;;;;4594878;19;20346;-34
2023/01/30 05:58:31;;;;;;;;;;;9.80;98.30;;;;;;4596575;19;19941;-34
2023/01/30 06:00:03;;;;;;;;;;;9.80;98.20;;;;;;4593440;19;20688;-34
2023/01/30 06:01:34;;;;;;;;;;;9.90;98.20;;;;;;4594674;19;19910;-34
2023/01/30 06:03:05;;;;;;;;;;;9.80;98.20;;;;;;4596320;19;19926;-34
2023/01/30 06:04:36;;;;;;;;;;;9.80;98.10;;;;;;4595104;19;19929;-37
2023/01/30 06:06:07;;;;;;;;;;;9.80;98.20;;;;;;4594508;19;19923;-35
2023/01/30 06:07:38;;;;;;;;;;;9.80;98.20;;;;;;4594745;19;19926;-37
2023/01/30 06:09:09;;;;;;;;;;;9.80;98.20;;;;;;4595022;19;19945;-36
2023/01/30 06:10:40;;;;;;;;;;;9.70;98.30;;;;;;4592792;19;20332;-35
2023/01/30 06:12:11;;;;;;;;;;;9.80;98.40;;;;;;4595495;19;20258;-35
2023/01/30 06:13:42;;;;;;;;;;;9.80;98.20;;;;;;4593762;19;19926;-36
2023/01/30 06:15:13;;;;;;;;;;;9.70;98.30;;;;;;4595031;19;19922;-36
2023/01/30 06:16:44;;;;;;;;;;;9.80;98.40;;;;;;4593586;19;19923;-35
2023/01/30 06:18:15;;;;;;;;;;;9.80;98.40;;;;;;4593356;19;19931;-33
2023/01/30 06:19:46;;;;;;;;;;;9.60;98.30;;;;;;4592564;19;20298;-34
2023/01/30 06:23:03;;;;;;;;;;;9.50;98.60;;;;;;4591394;19;19925;-36
2023/01/30 06:24:34;;;;;;;;;;;9.40;98.50;;;;;;4594677;19;19930;-35
2023/01/30 06:26:05;;;;;;;;;;;9.50;98.60;;;;;;4593936;19;19939;-37
2023/01/30 06:27:35;;;;;;;;;;;9.70;98.60;;;;;;4593484;19;19948;-36
2023/01/30 06:29:07;;;;;;;;;;;9.90;98.20;;;;;;4593568;19;20266;-34
2023/01/30 06:30:37;;;;;;;;;;;9.90;98.10;;;;;;4592520;19;19942;-32
2023/01/30 06:32:09;;;;;;;;;;;9.80;98.20;;;;;;4592295;19;19926;-34
2023/01/30 06:33:40;;;;;;;;;;;9.90;98.10;;;;;;4592434;19;19919;-34
2023/01/30 06:35:11;;;;;;;;;;;9.60;98.10;;;;;;4594865;19;19925;-37
2023/01/30 06:36:42;;;;;;;;;;;9.30;98.40;;;;;;4594655;19;20317;-33
2023/01/30 06:38:14;;;;;;;;;;;9.50;98.50;;;;;;4593058;19;20337;-35
2023/01/30 06:39:45;;;;;;;;;;;9.60;98.20;;;;;;4591295;19;19986;-35
2023/01/30 06:41:15;;;;;;;;;;;9.80;98.10;;;;;;4594543;19;19918;-35
2023/01/30 06:42:47;;;;;;;;;;;9.90;98.10;;;;;;4591883;19;19919;-36
2023/01/30 06:44:18;;;;;;;;;;;9.70;97.90;;;;;;4592208;19;20005;-36
2023/01/30 06:45:49;;;;;;;;;;;9.60;98.00;;;;;;4592770;19;19936;-34
2023/01/30 06:47:20;;;;;;;;;;;9.60;98.00;;;;;;4590783;19;19919;-36
2023/01/30 06:48:50;;;;;;;;;;;9.80;97.90;;;;;;4594165;19;19914;-37
2023/01/30 06:50:23;;;;;;;;;;;9.90;97.80;;;;;;4592979;19;19918;-34
2023/01/30 06:51:55;;;;;;;;;;;9.90;97.90;;;;;;4593057;19;19922;-36
2023/01/30 06:53:29;;;;;;;;;;;9.70;97.80;;;;;;4593225;19;19914;-34
2023/01/30 06:55:00;;;;;;;;;;;9.80;98.00;;;;;;4593154;19;19929;-35
2023/01/30 06:56:31;;;;;;;;;;;9.60;97.90;;;;;;4592207;19;20375;-35
2023/01/30 06:58:02;;;;;;;;;;;9.80;97.80;;;;;;4592956;19;19927;-35
2023/01/30 06:59:33;;;;;;;;;;;9.70;97.90;;;;;;4591306;19;19923;-34
2023/01/30 07:01:04;;;;;;;;;;;9.70;97.90;;;;;;4591899;19;19915;-35
2023/01/30 07:02:35;;;;;;;;;;;9.50;97.90;;;;;;4592328;19;19971;-36
2023/01/30 07:04:06;;;;;;;;;;;9.60;97.90;;;;;;4594174;19;19937;-36
2023/01/30 07:05:38;;;;;;;;;;;9.60;97.80;;;;;;4594011;19;20273;-35
2023/01/30 07:07:09;;;;;;;;;;;9.80;97.90;;;;;;4593922;19;19921;-34
2023/01/30 07:08:40;;;;;;;;;;;9.80;97.90;;;;;;4593153;19;20303;-35
2023/01/30 07:10:11;;;;;;;;;;;9.80;97.80;;;;;;4592810;19;19945;-37
2023/01/30 07:11:42;;;;;;;;;;;9.80;97.70;;;;;;4592384;19;20324;-35
2023/01/30 07:13:13;;;;;;;;;;;9.70;97.70;;;;;;4592311;19;19915;-34
2023/01/30 07:14:44;;;;;;;;;;;9.60;97.90;;;;;;4589163;19;19942;-35
2023/01/30 07:16:15;;;;;;;;;;;9.60;97.90;;;;;;4591236;19;19919;-35
2023/01/30 07:17:46;;;;;;;;;;;9.70;97.80;;;;;;4594505;19;19943;-34
2023/01/30 07:19:17;;;;;;;;;;;9.80;97.80;;;;;;4592926;19;19915;-35
2023/01/30 07:20:48;;;;;;;;;;;9.70;97.80;;;;;;4594567;19;19929;-35
2023/01/30 07:22:19;;;;;;;;;;;9.70;97.90;;;;;;4594641;19;19911;-35
2023/01/30 08:58:44;;;;;;;;;;;9.60;99.70;;;;;;4591477;19;19918;-37
2023/01/30 09:00:16;;;;;;;;;;;9.60;99.60;;;;;;4590129;19;19925;-36
2023/01/30 09:01:47;;;;;;;;;;;9.60;99.60;;;;;;4591616;19;19919;-34
2023/01/30 09:03:18;;;;;;;;;;;9.60;99.60;;;;;;4591450;19;19907;-34
2023/01/30 09:04:49;;;;;;;;;;;9.60;99.70;;;;;;4591037;19;19935;-36
2023/01/30 09:06:20;;;;;;;;;;;9.60;99.70;;;;;;4591080;19;19919;-37
2023/01/30 09:07:51;;;;;;;;;;;9.70;99.70;;;;;;4591259;19;19914;-37
2023/01/30 09:09:22;;;;;;;;;;;9.90;99.50;;;;;;4591356;19;19981;-37
2023/01/30 09:10:56;;;;;;;;;;;10.00;99.20;;;;;;4591066;19;20249;-34
2023/01/30 09:12:27;;;;;;;;;;;10.20;99.10;;;;;;4591384;19;19915;-34
2023/01/30 09:13:59;;;;;;;;;;;10.20;99.00;;;;;;4590588;19;19936;-36
2023/01/30 09:15:31;;;;;;;;;;;10.30;99.00;;;;;;4591594;19;19911;-36
2023/01/30 09:17:02;;;;;;;;;;;10.30;98.90;;;;;;4590842;19;19915;-37
2023/01/30 09:18:33;;;;;;;;;;;10.30;98.90;;;;;;4591534;19;19925;-37
2023/01/30 09:21:55;;;;;;;;;;;10.20;98.90;;;;;;4600529;19;19914;-37
2023/01/30 09:23:26;;;;;;;;;;;10.20;99.00;;;;;;4598595;19;20254;-35
2023/01/30 09:24:58;;;;;;;;;;;10.10;99.00;;;;;;4599207;19;19929;-35
2023/01/30 09:26:28;;;;;;;;;;;10.10;99.20;;;;;;4600526;19;20313;-36
2023/01/30 09:28:00;;;;;;;;;;;10.20;99.10;;;;;;4599861;19;19922;-35
2023/01/30 09:29:31;;;;;;;;;;;10.30;99.10;;;;;;4599411;19;19924;-35
2023/01/30 09:31:02;;;;;;;;;;;10.40;98.90;;;;;;4599962;19;19919;-35
2023/01/30 09:32:36;;;;;;;;;;;10.40;98.90;;;;;;4600048;19;20269;-33
2023/01/30 09:34:07;;;;;;;;;;;10.40;98.90;;;;;;4599437;19;19931;-34
2023/01/30 09:35:38;;;;;;;;;;;10.40;99.00;;;;;;4599612;19;19929;-36
2023/01/30 09:37:09;;;;;;;;;;;10.40;99.10;;;;;;4599519;19;19911;-37
2023/01/30 09:38:40;;;;;;;;;;;10.40;99.10;;;;;;4599310;19;20238;-36
2023/01/30 09:40:13;;;;;;;;;;;10.40;99.20;;;;;;4597846;19;19922;-35
2023/01/30 09:41:47;;;;;;;;;;;10.30;99.30;;;;;;4597199;19;19937;-36
2023/01/30 09:43:23;;;;;;;;;;;10.40;99.30;;;;;;4599924;19;20260;-34
2023/01/30 09:45:00;;;;;;;;;;;10.50;99.20;;;;;;4600250;19;20222;-35
2023/01/30 09:46:41;;;;;;;;;;;10.60;99.00;;;;;;4600380;19;19937;-37
2023/01/30 09:48:14;;;;;;;;;;;10.70;99.00;;;;;;4599104;19;19919;-38
2023/01/30 09:50:00;;;;;;;;;;;10.70;99.00;;;;;;4597543;19;19977;-35
2023/01/30 09:51:34;;;;;;;;;;;10.60;99.00;;;;;;4599000;19;19919;-36
2023/01/30 09:53:05;;;;;;;;;;;10.70;99.60;;;;;;4599598;19;19978;-34
2023/01/30 09:54:36;;;;;;;;;;;11.00;98.90;;;;;;4598641;19;19929;-35
2023/01/30 09:56:08;;;;;;;;;;;10.90;99.00;;;;;;4598912;19;19930;-34
2023/01/30 09:57:38;;;;;;;;;;;10.80;99.20;;;;;;4599587;19;20317;-34
2023/01/30 09:59:14;;;;;;;;;;;10.60;99.30;;;;;;4596601;19;19911;-35
2023/01/30 10:00:47;;;;;;;;;;;10.60;99.50;;;;;;4598018;19;20324;-37
2023/01/30 10:02:23;;;;;;;;;;;10.80;99.80;;;;;;4597947;19;19922;-36
2023/01/30 10:03:57;;;;;;;;;;;10.70;99.40;;;;;;4598574;19;19930;-35
2023/01/30 10:05:37;;;;;;;;;;;10.70;99.50;;;;;;4598684;19;20336;-34
2023/01/30 10:07:20;;;;;;;;;;;10.80;99.60;;;;;;4598886;19;19931;-38
2023/01/30 10:08:53;;;;;;;;;;;10.80;99.50;;;;;;4599089;19;19914;-34
2023/01/30 10:10:44;;;;;;;;;;;10.50;99.90;;;;;;4599301;19;19975;-37
2023/01/30 10:12:15;;;;;;;;;;;10.30;99.90;;;;;;4596549;19;19942;-35
2023/01/30 10:13:46;;;;;;;;;;;10.20;99.90;;;;;;4596337;19;19922;-36
2023/01/30 10:15:29;;;;;;;;;;;10.20;99.90;;;;;;4596868;19;19910;-33
2023/01/30 10:17:00;;;;;;;;;;;10.10;99.90;;;;;;4596793;19;19974;-36
2023/01/30 10:18:49;;;;;;;;;;;10.10;99.90;;;;;;4596610;19;20391;-35
2023/01/30 10:20:21;;;;;;;;;;;10.00;99.90;;;;;;4595237;19;19918;-34
2023/01/30 10:21:58;;;;;;;;;;;10.00;99.90;;;;;;4596461;19;19919;-36
2023/01/30 10:23:31;;;;;;;;;;;10.10;99.90;;;;;;4596466;19;19934;-35
2023/01/30 10:25:06;;;;;;;;;;;10.10;99.90;;;;;;4596673;19;19922;-37
2023/01/30 10:26:37;;;;;;;;;;;10.00;99.90;;;;;;4597775;19;19999;-34
2023/01/30 10:28:13;;;;;;;;;;;9.90;99.90;;;;;;4598679;19;20273;-37
2023/01/30 10:29:50;;;;;;;;;;;10.00;99.90;;;;;;4595988;19;20441;-36
2023/01/30 10:31:21;;;;;;;;;;;10.00;99.90;;;;;;4593439;19;19912;-34
2023/01/30 10:32:54;;;;;;;;;;;10.20;99.90;;;;;;4591858;19;19919;-38
2023/01/30 10:34:33;;;;;;;;;;;10.20;99.90;;;;;;4592085;19;19915;-35
2023/01/30 10:36:09;;;;;;;;;;;10.30;99.90;;;;;;4591966;19;19917;-35
2023/01/30 10:37:43;;;;;;;;;;;10.30;99.90;;;;;;4591870;19;19951;-37
2023/01/30 10:39:22;;;;;;;;;;;10.40;99.90;;;;;;4593238;19;19926;-35
2023/01/30 10:40:57;;;;;;;;;;;10.40;99.90;;;;;;4591695;19;19907;-36
2023/01/30 10:42:30;;;;;;;;;;;10.50;99.90;;;;;;4591920;19;20304;-35
2023/01/30 10:44:01;;;;;;;;;;;10.50;99.90;;;;;;4592252;19;19915;-38
2023/01/30 10:45:44;;;;;;;;;;;10.50;99.90;;;;;;4592145;19;19922;-34
2023/01/30 10:47:20;;;;;;;;;;;10.50;99.90;;;;;;4592145;19;19939;-32
2023/01/30 10:48:53;;;;;;;;;;;10.50;99.90;;;;;;4591597;19;19992;-32
2023/01/30 10:50:29;;;;;;;;;;;10.50;99.90;;;;;;4592390;19;19922;-32
2023/01/30 10:52:03;;;;;;;;;;;10.60;99.90;;;;;;4593831;19;19933;-32
2023/01/30 10:53:55;;;;;;;;;;;10.60;99.90;;;;;;4594159;19;19922;-31
2023/01/30 10:55:42;;;;;;;;;;;10.60;99.90;;;;;;4591454;19;19911;-34
2023/01/30 10:57:13;;;;;;;;;;;10.60;99.90;;;;;;4591257;19;20011;-34
2023/01/30 10:58:50;;;;;;;;;;;10.60;99.90;;;;;;4590366;19;20258;-31
2023/01/30 11:00:27;;;;;;;;;;;10.60;99.90;;;;;;4590328;19;19915;-32
2023/01/30 11:02:12;;;;;;;;;;;10.70;99.90;;;;;;4591460;19;20348;-35
2023/01/30 11:03:54;;;;;;;;;;;10.80;99.90;;;;;;4591510;19;19914;-32
2023/01/30 11:05:26;;;;;;;;;;;10.70;99.90;;;;;;4591354;19;19922;-33
2023/01/30 11:06:58;;;;;;;;;;;10.60;99.90;;;;;;4591535;19;19918;-32
2023/01/30 11:08:30;;;;;;;;;;;10.50;99.90;;;;;;4591783;19;19919;-33
2023/01/30 11:10:01;;;;;;;;;;;10.50;99.90;;;;;;4591384;19;19915;-32
2023/01/30 11:11:34;;;;;;;;;;;10.40;99.90;;;;;;4591146;19;19923;-35
2023/01/30 11:13:24;;;;;;;;;;;10.40;99.90;;;;;;4591437;19;19915;-33
2023/01/30 11:14:57;;;;;;;;;;;10.40;99.90;;;;;;4589818;19;19954;-34
2023/01/30 11:16:28;;;;;;;;;;;10.30;99.90;;;;;;4591138;19;19935;-32
2023/01/30 11:18:02;;;;;;;;;;;10.30;99.90;;;;;;4590822;19;19946;-33
2023/01/30 11:19:33;;;;;;;;;;;10.30;99.90;;;;;;4590270;19;20257;-31
2023/01/30 11:21:06;;;;;;;;;;;10.20;99.90;;;;;;4589222;19;19919;-36
2023/01/30 11:22:38;;;;;;;;;;;10.20;99.90;;;;;;4589398;19;20664;-34
2023/01/30 11:24:16;;;;;;;;;;;10.20;99.90;;;;;;4587689;19;19919;-32
2023/01/30 11:25:47;;;;;;;;;;;10.20;99.90;;;;;;4588811;19;19930;-35
2023/01/30 11:27:28;;;;;;;;;;;10.30;99.90;;;;;;4588351;19;20401;-32
2023/01/30 11:28:59;;;;;;;;;;;10.20;99.90;;;;;;4588456;19;20387;-34
2023/01/30 11:30:33;;;;;;;;;;;10.30;99.90;;;;;;4586632;19;19918;-31
2023/01/30 11:32:09;;;;;;;;;;;10.20;99.90;;;;;;4587528;19;20342;-32
2023/01/30 11:33:40;;;;;;;;;;;10.20;99.90;;;;;;4587741;19;19922;-32
2023/01/30 11:35:15;;;;;;;;;;;10.20;99.90;;;;;;4590557;19;19929;-35
2023/01/30 11:36:46;;;;;;;;;;;10.20;99.90;;;;;;4590175;19;19923;-31
2023/01/30 11:38:25;;;;;;;;;;;10.20;99.90;;;;;;4589006;19;19922;-32
2023/01/30 11:39:56;;;;;;;;;;;10.20;99.90;;;;;;4589213;19;19922;-32
2023/01/30 11:41:28;;;;;;;;;;;10.20;99.90;;;;;;4592580;19;20257;-32
2023/01/30 11:43:03;;;;;;;;;;;10.20;99.90;;;;;;4586267;19;20377;-32
2023/01/30 11:44:36;;;;;;;;;;;10.20;99.90;;;;;;4588036;19;19939;-33
2023/01/30 11:46:09;;;;;;;;;;;10.20;99.90;;;;;;4588372;19;20324;-35
2023/01/30 11:47:49;;;;;;;;;;;10.20;99.90;;;;;;4590555;19;20254;-34
2023/01/30 11:49:23;;;;;;;;;;;10.20;99.90;;;;;;4589893;19;19922;-33
2023/01/30 11:51:13;;;;;;;;;;;10.10;99.90;;;;;;4591384;19;19918;-34
2023/01/30 11:52:44;;;;;;;;;;;10.20;99.90;;;;;;4589926;19;20270;-32
2023/01/30 11:54:17;;;;;;;;;;;10.20;99.90;;;;;;4588246;19;19951;-33
2023/01/30 11:55:48;;;;;;;;;;;10.10;99.90;;;;;;4586746;19;19982;-35
2023/01/30 11:57:19;;;;;;;;;;;10.10;99.90;;;;;;4588770;19;19918;-35
2023/01/30 11:58:57;;;;;;;;;;;10.20;99.90;;;;;;4586942;19;19933;-30
2023/01/30 12:00:35;;;;;;;;;;;10.20;99.90;;;;;;4589218;19;20329;-32
2023/01/30 12:02:12;;;;;;;;;;;10.20;99.90;;;;;;4590307;19;19919;-32
2023/01/30 12:03:44;;;;;;;;;;;10.10;99.90;;;;;;4588428;19;19918;-35
2023/01/30 12:05:18;;;;;;;;;;;10.20;99.90;;;;;;4587873;19;19919;-33
2023/01/30 12:06:49;;;;;;;;;;;10.20;99.90;;;;;;4588546;19;19952;-32
2023/01/30 12:08:20;;;;;;;;;;;10.20;99.90;;;;;;4587325;19;19926;-32
2023/01/30 12:09:53;;;;;;;;;;;10.10;99.90;;;;;;4587505;19;19915;-32
2023/01/30 12:11:25;;;;;;;;;;;10.20;99.90;;;;;;4588704;19;19915;-34
2023/01/30 12:12:57;;;;;;;;;;;10.20;99.90;;;;;;4587387;19;19915;-35
2023/01/30 12:14:39;;;;;;;;;;;10.20;99.90;;;;;;4587237;19;19922;-31
2023/01/30 12:16:10;;;;;;;;;;;10.30;99.90;;;;;;4589130;19;20515;-32
2023/01/30 12:17:43;;;;;;;;;;;10.30;99.90;;;;;;4592088;19;19994;-35
2023/01/30 12:19:20;;;;;;;;;;;10.30;99.90;;;;;;4592565;19;19931;-31
2023/01/30 12:21:00;;;;;;;;;;;10.30;99.90;;;;;;4591139;19;19974;-33
2023/01/30 12:22:31;;;;;;;;;;;10.30;99.90;;;;;;4591167;19;19922;-33
2023/01/30 12:24:06;;;;;;;;;;;10.30;99.90;;;;;;4591226;19;19925;-32
2023/01/30 12:25:41;;;;;;;;;;;10.30;99.90;;;;;;4591155;19;19919;-32
2023/01/30 12:27:41;;;;;;;;;;;10.30;99.90;;;;;;4590171;19;19919;-33
2023/01/30 12:29:15;;;;;;;;;;;10.30;99.90;;;;;;4590620;19;19933;-34
2023/01/30 12:30:55;;;;;;;;;;;10.30;99.90;;;;;;4591146;19;20329;-33
2023/01/30 12:32:26;;;;;;;;;;;10.50;99.90;;;;;;4591284;19;19922;-33
2023/01/30 12:33:58;;;;;;;;;;;10.70;99.90;;;;;;4591561;19;19982;-33
2023/01/30 12:35:48;;;;;;;;;;;10.70;99.90;;;;;;4592030;19;19925;-32
2023/01/30 12:37:35;;;;;;;;;;;10.60;99.90;;;;;;4592020;19;19915;-32
2023/01/30 12:39:25;;;;;;;;;;;10.50;99.90;;;;;;4590519;19;20262;-32
2023/01/30 12:41:00;;;;;;;;;;;10.40;99.90;;;;;;4593206;19;20344;-32
2023/01/30 12:42:37;;;;;;;;;;;10.50;99.90;;;;;;4590107;19;20049;-32
2023/01/30 12:44:18;;;;;;;;;;;10.50;99.90;;;;;;4591533;19;19919;-32
2023/01/30 12:45:54;;;;;;;;;;;10.50;99.90;;;;;;4591372;19;19974;-32
2023/01/30 12:47:43;;;;;;;;;;;10.50;99.90;;;;;;4591454;19;19919;-32
2023/01/30 12:49:21;;;;;;;;;;;10.30;99.90;;;;;;4591276;19;20313;-32
2023/01/30 12:51:08;;;;;;;;;;;10.50;99.90;;;;;;4590516;19;19918;-31
2023/01/30 12:52:39;;;;;;;;;;;10.50;99.90;;;;;;4591404;19;19926;-32
2023/01/30 12:54:43;;;;;;;;;;;10.50;99.90;;;;;;4589338;19;19915;-32
2023/01/30 12:56:16;;;;;;;;;;;10.30;99.90;;;;;;4588602;19;19982;-32
2023/01/30 12:57:58;;;;;;;;;;;10.40;99.90;;;;;;4588384;19;20360;-32
2023/01/30 12:59:34;;;;;;;;;;;10.50;99.90;;;;;;4588956;19;20262;-32
2023/01/30 13:01:04;;;;;;;;;;;10.50;99.90;;;;;;4588928;19;19915;-32
2023/01/30 13:02:51;;;;;;;;;;;10.50;99.90;;;;;;4589008;19;20251;-32
2023/01/30 13:04:41;;;;;;;;;;;10.50;99.90;;;;;;4588795;19;19925;-32
2023/01/30 13:06:21;;;;;;;;;;;10.40;99.90;;;;;;4588571;19;19915;-32
2023/01/30 13:07:55;;;;;;;;;;;10.40;99.90;;;;;;4588741;19;19914;-32
2023/01/30 13:09:35;;;;;;;;;;;10.40;99.90;;;;;;4588942;19;19974;-32
2023/01/30 13:11:18;;;;;;;;;;;10.40;99.90;;;;;;4589209;19;19958;-32